Time;durP1;ratioP1;P1;durP2;ratioP2;P2;SDS_P1;SDS_P2;PMS_P1;PMS_P2;Temp;Humidity;BMP_temperature;BMP_pressure;BME280_temperature;BME280_humidity;BME280_pressure;Samples;Min_cycle;Max_cycle;Signal;HPM_P1;HPM_P2
2022/04/23 00:02:02;;;;;;;1999.90;999.90;;;12.60;99.90;;;;;;5053204;28;20842;-68
2022/04/23 00:04:30;;;;;;;1999.90;999.90;;;12.60;99.90;;;;;;5052745;28;20616;-68
2022/04/23 00:06:58;;;;;;;1999.90;999.90;;;12.60;99.90;;;;;;5053098;28;20406;-68
2022/04/23 00:09:23;;;;;;;1999.90;999.90;;;12.60;99.90;;;;;;5053097;28;20482;-68
2022/04/23 00:11:49;;;;;;;1999.90;999.90;;;12.50;99.90;;;;;;5053010;28;20555;-68
2022/04/23 00:14:14;;;;;;;1999.90;999.90;;;12.50;99.90;;;;;;5052579;28;20636;-68
2022/04/23 00:16:40;;;;;;;1999.90;999.90;;;12.50;99.90;;;;;;5052829;28;20207;-68
2022/04/23 00:19:06;;;;;;;1999.90;999.90;;;12.40;99.90;;;;;;5052985;28;20184;-68
2022/04/23 00:21:31;;;;;;;1999.90;999.90;;;12.40;99.90;;;;;;5052827;28;20270;-68
2022/04/23 00:23:57;;;;;;;1999.90;999.90;;;12.40;99.90;;;;;;5052712;28;20188;-68
2022/04/23 00:26:23;;;;;;;1999.90;999.90;;;12.40;99.90;;;;;;5052596;28;20194;-68
2022/04/23 00:28:48;;;;;;;1999.90;999.90;;;12.30;99.90;;;;;;5052671;28;20201;-68
2022/04/23 00:31:14;;;;;;;1999.90;999.90;;;12.30;99.90;;;;;;5052640;28;20232;-68
2022/04/23 00:33:40;;;;;;;1999.90;999.90;;;12.30;99.90;;;;;;5052594;28;20724;-68
2022/04/23 00:36:08;;;;;;;1999.90;999.90;;;12.30;99.90;;;;;;5052192;28;20198;-68
2022/04/23 00:38:34;;;;;;;1999.90;999.90;;;12.30;99.90;;;;;;5052785;28;21114;-68
2022/04/23 00:41:00;;;;;;;1999.90;999.90;;;12.20;99.90;;;;;;5052482;28;20438;-68
2022/04/23 00:43:35;;;;;;;1999.90;999.90;;;12.20;99.90;;;;;;5051359;28;20226;-68
2022/04/23 00:46:03;;;;;;;1999.90;999.90;;;12.20;99.90;;;;;;5052123;28;20751;-68
2022/04/23 00:48:28;;;;;;;1999.90;999.90;;;12.20;99.90;;;;;;5052290;28;20414;-68
2022/04/23 00:50:57;;;;;;;1999.90;999.90;;;12.20;99.90;;;;;;5052319;28;20412;-68
2022/04/23 00:53:24;;;;;;;1999.90;999.90;;;12.20;99.90;;;;;;5052189;28;20426;-68
2022/04/23 00:55:52;;;;;;;1999.90;999.90;;;12.10;99.90;;;;;;5051925;28;20540;-68
2022/04/23 00:58:19;;;;;;;1999.90;999.90;;;12.10;99.90;;;;;;5052244;28;20861;-68
2022/04/23 01:00:45;;;;;;;1999.90;999.90;;;12.00;99.90;;;;;;5052120;28;20457;-68
2022/04/23 01:03:12;;;;;;;1999.90;999.90;;;12.00;99.90;;;;;;5052320;28;20418;-68
2022/04/23 01:05:45;;;;;;;1999.90;999.90;;;12.00;99.90;;;;;;5051977;28;20516;-68
2022/04/23 01:08:15;;;;;;;1999.90;999.90;;;12.00;99.90;;;;;;5052251;28;20402;-68
2022/04/23 01:10:43;;;;;;;1999.90;999.90;;;12.00;99.90;;;;;;5052067;28;20414;-68
2022/04/23 01:13:08;;;;;;;1999.90;999.90;;;12.00;99.90;;;;;;5051904;28;20519;-68
2022/04/23 01:15:34;;;;;;;1999.90;999.90;;;12.00;99.90;;;;;;5051536;28;20524;-68
2022/04/23 01:18:00;;;;;;;1999.90;999.90;;;11.90;99.90;;;;;;5052124;28;20483;-68
2022/04/23 01:20:26;;;;;;;1999.90;999.90;;;11.90;99.90;;;;;;5051935;28;20564;-68
2022/04/23 01:22:51;;;;;;;1999.90;999.90;;;11.90;99.90;;;;;;5051923;28;20276;-68
2022/04/23 01:25:17;;;;;;;1999.90;999.90;;;11.80;99.90;;;;;;5051624;28;20398;-68
2022/04/23 01:27:45;;;;;;;1999.90;999.90;;;11.80;99.90;;;;;;5051772;28;20927;-68
2022/04/23 01:30:11;;;;;;;1999.90;999.90;;;11.80;99.90;;;;;;5051789;28;20212;-68
2022/04/23 01:32:37;;;;;;;1999.90;999.90;;;11.80;99.90;;;;;;5051688;28;20406;-68
2022/04/23 01:35:04;;;;;;;1999.90;999.90;;;11.80;99.90;;;;;;5051455;28;20513;-68
2022/04/23 01:37:30;;;;;;;1999.90;999.90;;;11.70;99.90;;;;;;5051791;28;20625;-68
2022/04/23 01:39:55;;;;;;;1999.90;999.90;;;11.70;99.90;;;;;;5051780;28;20398;-68
2022/04/23 01:42:21;;;;;;;1999.90;999.90;;;11.70;99.90;;;;;;5051626;28;20161;-68
2022/04/23 01:44:51;;;;;;;1999.90;999.90;;;11.60;99.90;;;;;;5052558;28;20203;-67
2022/04/23 01:47:18;;;;;;;1999.90;999.90;;;11.60;99.90;;;;;;5052070;28;20168;-68
2022/04/23 01:49:44;;;;;;;1999.90;999.90;;;11.50;99.90;;;;;;5052099;28;20387;-67
2022/04/23 01:52:12;;;;;;;1999.90;999.90;;;11.50;99.90;;;;;;5051642;28;20748;-68
2022/04/23 01:54:38;;;;;;;1999.90;999.90;;;11.60;99.90;;;;;;5053643;28;20571;-67
2022/04/23 01:57:05;;;;;;;1999.90;999.90;;;11.50;99.90;;;;;;5055748;28;20541;-67
2022/04/23 01:59:31;;;;;;;1999.90;999.90;;;11.50;99.90;;;;;;5055605;28;20413;-67
2022/04/23 02:01:58;;;;;;;1999.90;999.90;;;11.50;99.90;;;;;;5055564;28;20492;-67
2022/04/23 02:04:25;;;;;;;1999.90;999.90;;;11.50;99.90;;;;;;5055320;28;20429;-67
2022/04/23 02:06:51;;;;;;;1999.90;999.90;;;11.50;99.90;;;;;;5055393;28;20425;-67
2022/04/23 02:09:17;;;;;;;1999.90;999.90;;;11.40;99.90;;;;;;5055548;28;20404;-67
2022/04/23 02:11:43;;;;;;;1999.90;999.90;;;11.40;99.90;;;;;;5055548;28;20410;-67
2022/04/23 02:14:09;;;;;;;1999.90;999.90;;;11.40;99.90;;;;;;5055212;28;20431;-67
2022/04/23 02:16:35;;;;;;;1999.90;999.90;;;11.30;99.90;;;;;;5055464;28;20462;-67
2022/04/23 02:19:03;;;;;;;1999.90;999.90;;;11.20;99.90;;;;;;5055433;28;20401;-67
2022/04/23 02:21:29;;;;;;;1999.90;999.90;;;11.10;99.90;;;;;;5055499;28;20229;-67
2022/04/23 02:23:55;;;;;;;1999.90;999.90;;;11.10;99.90;;;;;;5055268;28;20432;-67
2022/04/23 02:26:21;;;;;;;1999.90;999.90;;;11.10;99.90;;;;;;5054965;28;20409;-67
2022/04/23 02:28:50;;;;;;;1999.90;999.90;;;11.00;99.90;;;;;;5055167;28;20178;-67
2022/04/23 02:31:16;;;;;;;1999.90;999.90;;;11.00;99.90;;;;;;5055191;28;20421;-67
2022/04/23 02:33:44;;;;;;;1999.90;999.90;;;10.90;99.90;;;;;;5055096;28;20436;-67
2022/04/23 02:36:11;;;;;;;1999.90;999.90;;;10.90;99.90;;;;;;5054508;28;20460;-67
2022/04/23 02:38:40;;;;;;;1999.90;999.90;;;10.90;99.90;;;;;;5054924;28;20404;-67
2022/04/23 02:41:10;;;;;;;1999.90;999.90;;;10.90;99.90;;;;;;5054853;28;20407;-67
2022/04/23 02:43:38;;;;;;;1999.90;999.90;;;10.90;99.90;;;;;;5054567;28;20457;-67
2022/04/23 02:46:04;;;;;;;1999.90;999.90;;;10.80;99.90;;;;;;5054612;28;20410;-67
2022/04/23 02:48:30;;;;;;;1999.90;999.90;;;10.80;99.90;;;;;;5054848;28;20785;-67
2022/04/23 02:50:55;;;;;;;1999.90;999.90;;;10.70;99.90;;;;;;5054619;28;20493;-67
2022/04/23 02:53:21;;;;;;;1999.90;999.90;;;10.60;99.90;;;;;;5054436;28;20211;-67
2022/04/23 02:55:47;;;;;;;1999.90;999.90;;;10.60;99.90;;;;;;5054243;28;20252;-67
2022/04/23 02:58:13;;;;;;;1999.90;999.90;;;10.60;99.90;;;;;;5054510;28;20174;-67
2022/04/23 03:00:40;;;;;;;1999.90;999.90;;;10.60;99.90;;;;;;5054617;28;20171;-67
2022/04/23 03:03:07;;;;;;;1999.90;999.90;;;10.50;99.90;;;;;;5054259;28;20471;-67
2022/04/23 03:05:33;;;;;;;1999.90;999.90;;;10.40;99.90;;;;;;5053227;28;20413;-67
2022/04/23 03:08:02;;;;;;;1999.90;999.90;;;10.40;99.90;;;;;;5054733;28;20413;-67
2022/04/23 03:10:29;;;;;;;1999.90;999.90;;;10.40;99.90;;;;;;5055832;28;20421;-68
2022/04/23 03:12:57;;;;;;;1999.90;999.90;;;10.40;99.90;;;;;;5055753;28;20430;-67
2022/04/23 03:15:24;;;;;;;1999.90;999.90;;;10.40;99.90;;;;;;5055736;28;20452;-67
2022/04/23 03:17:50;;;;;;;1999.90;999.90;;;10.20;99.90;;;;;;5056132;28;20403;-67
2022/04/23 03:20:16;;;;;;;1999.90;999.90;;;10.30;99.90;;;;;;5055682;28;20463;-68
2022/04/23 03:22:43;;;;;;;1999.90;999.90;;;10.20;99.90;;;;;;5056067;28;20191;-68
2022/04/23 03:25:10;;;;;;;1999.90;999.90;;;10.20;99.90;;;;;;5055946;28;20221;-67
2022/04/23 03:27:36;;;;;;;1999.90;999.90;;;10.20;99.90;;;;;;5055734;28;20437;-68
2022/04/23 03:30:03;;;;;;;1999.90;999.90;;;10.20;99.90;;;;;;5055494;28;20504;-68
2022/04/23 03:32:30;;;;;;;1999.90;999.90;;;10.20;99.90;;;;;;5055316;28;20404;-67
2022/04/23 03:34:56;;;;;;;1999.90;999.90;;;10.10;99.90;;;;;;5055319;28;20458;-67
2022/04/23 03:37:22;;;;;;;1999.90;999.90;;;10.10;99.90;;;;;;5055687;28;20409;-67
2022/04/23 03:39:48;;;;;;;1999.90;999.90;;;10.00;99.90;;;;;;5055266;28;20167;-67
2022/04/23 03:42:13;;;;;;;1999.90;999.90;;;10.00;99.90;;;;;;5054963;28;20405;-68
2022/04/23 03:44:39;;;;;;;1999.90;999.90;;;10.00;99.90;;;;;;5055541;28;20660;-67
2022/04/23 03:47:05;;;;;;;1999.90;999.90;;;9.80;99.90;;;;;;5055494;28;20215;-67
2022/04/23 03:49:31;;;;;;;1999.90;999.90;;;9.80;99.90;;;;;;5055385;28;20539;-67
2022/04/23 03:51:57;;;;;;;1999.90;999.90;;;9.80;99.90;;;;;;5055155;28;20174;-68
2022/04/23 03:54:23;;;;;;;1999.90;999.90;;;9.80;99.90;;;;;;5054885;28;20451;-68
2022/04/23 03:56:49;;;;;;;1999.90;999.90;;;9.80;99.90;;;;;;5054936;28;20522;-67
2022/04/23 03:59:20;;;;;;;1999.90;999.90;;;9.80;99.90;;;;;;5055043;28;20894;-67
2022/04/23 04:01:47;;;;;;;1999.90;999.90;;;9.70;99.90;;;;;;5054865;28;20171;-68
2022/04/23 04:04:14;;;;;;;1999.90;999.90;;;9.70;99.90;;;;;;5055012;28;20422;-67
2022/04/23 04:06:39;;;;;;;1999.90;999.90;;;9.70;99.90;;;;;;5055484;28;20414;-67
2022/04/23 04:09:05;;;;;;;1999.90;999.90;;;9.70;99.90;;;;;;5055024;28;20463;-68
2022/04/23 04:12:01;;;;;;;1999.90;999.90;;;9.70;99.90;;;;;;5055305;28;20405;-67
2022/04/23 04:14:16;;;;;;;1999.90;999.90;;;9.60;99.90;;;;;;5054830;28;20282;-67
2022/04/23 04:16:42;;;;;;;1999.90;999.90;;;9.70;99.90;;;;;;5054718;28;20898;-68
2022/04/23 04:19:08;;;;;;;1999.90;999.90;;;9.60;99.90;;;;;;5054784;28;20169;-68
2022/04/23 04:21:33;;;;;;;1999.90;999.90;;;9.60;99.90;;;;;;5054779;28;20826;-67
2022/04/23 04:23:59;;;;;;;1999.90;999.90;;;9.50;99.90;;;;;;5054677;28;20186;-67
2022/04/23 04:26:25;;;;;;;1999.90;999.90;;;9.50;99.90;;;;;;5054571;28;20179;-67
2022/04/23 04:28:51;;;;;;;1999.90;999.90;;;9.50;99.90;;;;;;5053636;28;20803;-67
2022/04/23 04:34:01;;;;;;;1999.90;999.90;;;9.40;99.90;;;;;;5052665;28;20202;-67
2022/04/23 04:36:26;;;;;;;1999.90;999.90;;;9.50;99.90;;;;;;5052862;28;20828;-67
2022/04/23 04:38:52;;;;;;;1999.90;999.90;;;9.50;99.90;;;;;;5052743;28;20210;-67
2022/04/23 04:41:17;;;;;;;1999.90;999.90;;;9.40;99.90;;;;;;5052869;28;20178;-67
2022/04/23 04:43:43;;;;;;;1999.90;999.90;;;9.50;99.90;;;;;;5052542;28;20209;-67
2022/04/23 04:46:08;;;;;;;1999.90;999.90;;;9.40;99.90;;;;;;5052435;28;20223;-67
2022/04/23 04:48:34;;;;;;;1999.90;999.90;;;9.40;99.90;;;;;;5052661;28;20184;-67
2022/04/23 04:50:59;;;;;;;1999.90;999.90;;;9.50;99.90;;;;;;5052685;28;20171;-67
2022/04/23 04:53:25;;;;;;;1999.90;999.90;;;9.50;99.90;;;;;;5052519;28;20265;-67
2022/04/23 04:55:50;;;;;;;1999.90;999.90;;;9.50;99.90;;;;;;5052217;28;20871;-67
2022/04/23 04:58:16;;;;;;;1999.90;999.90;;;9.60;99.90;;;;;;5052421;28;20240;-67
2022/04/23 05:00:42;;;;;;;1999.90;999.90;;;9.60;99.90;;;;;;5052479;28;20173;-67
2022/04/23 05:03:07;;;;;;;1999.90;999.90;;;9.60;99.90;;;;;;5052154;28;20194;-67
2022/04/23 05:05:33;;;;;;;1999.90;999.90;;;9.60;99.90;;;;;;5051991;28;20256;-67
2022/04/23 05:07:58;;;;;;;1999.90;999.90;;;9.70;99.90;;;;;;5052240;28;20185;-67
2022/04/23 05:10:24;;;;;;;1999.90;999.90;;;9.70;99.90;;;;;;5052208;28;20178;-67
2022/04/23 05:12:50;;;;;;;1999.90;999.90;;;9.80;99.90;;;;;;5052328;28;20232;-67
2022/04/23 05:15:16;;;;;;;1999.90;999.90;;;9.80;99.90;;;;;;5051770;28;20202;-67
2022/04/23 05:17:41;;;;;;;1999.90;999.90;;;9.90;99.90;;;;;;5052099;28;20585;-67
2022/04/23 05:20:08;;;;;;;1999.90;999.90;;;9.90;99.90;;;;;;5051999;28;20410;-67
2022/04/23 05:22:34;;;;;;;1999.90;999.90;;;10.00;99.90;;;;;;5051884;28;20216;-67
2022/04/23 05:24:59;;;;;;;1999.90;999.90;;;10.10;99.90;;;;;;5051726;28;20516;-67
2022/04/23 05:27:26;;;;;;;1999.90;999.90;;;10.10;99.90;;;;;;5052127;28;20175;-67
2022/04/23 05:29:52;;;;;;;1999.90;999.90;;;10.20;99.90;;;;;;5052210;28;20249;-67
2022/04/23 05:32:17;;;;;;;1999.90;999.90;;;10.20;99.90;;;;;;5052782;28;20413;-67
2022/04/23 05:34:43;;;;;;;1999.90;999.90;;;10.30;99.90;;;;;;5052604;28;21130;-68
2022/04/23 05:37:09;;;;;;;1999.90;999.90;;;10.40;99.90;;;;;;5052539;28;20656;-67
2022/04/23 05:39:35;;;;;;;1999.90;999.90;;;10.40;99.90;;;;;;5052365;28;20421;-68
2022/04/23 05:42:01;;;;;;;1999.90;999.90;;;10.50;99.90;;;;;;5052413;28;20420;-67
2022/04/23 05:44:26;;;;;;;1999.90;999.90;;;10.60;99.90;;;;;;5052360;28;20251;-68
2022/04/23 05:46:52;;;;;;;1999.90;999.90;;;10.60;99.90;;;;;;5052903;28;20172;-67
2022/04/23 05:49:18;;;;;;;1999.90;999.90;;;10.70;99.90;;;;;;5052949;28;20243;-67
2022/04/23 05:51:43;;;;;;;1999.90;999.90;;;10.70;99.90;;;;;;5052535;28;20441;-67
2022/04/23 05:54:09;;;;;;;1999.90;999.90;;;10.70;99.90;;;;;;5052002;28;20628;-67
2022/04/23 05:56:34;;;;;;;1999.90;999.90;;;10.80;99.90;;;;;;5051989;28;20195;-68
2022/04/23 05:59:00;;;;;;;1999.90;999.90;;;11.00;99.90;;;;;;5052064;28;20250;-68
2022/04/23 06:01:26;;;;;;;1999.90;999.90;;;11.10;99.90;;;;;;5051945;28;20175;-67
2022/04/23 06:03:51;;;;;;;1999.90;999.90;;;11.10;99.90;;;;;;5051902;28;20199;-68
2022/04/23 06:06:17;;;;;;;1999.90;999.90;;;11.20;99.90;;;;;;5051544;28;20179;-68
2022/04/23 06:08:42;;;;;;;1999.90;999.90;;;11.30;99.90;;;;;;5052072;28;20269;-67
2022/04/23 06:11:08;;;;;;;1999.90;999.90;;;11.40;99.90;;;;;;5051751;28;20173;-67
2022/04/23 06:13:34;;;;;;;1999.90;999.90;;;11.50;99.90;;;;;;5051763;28;20219;-67
2022/04/23 06:16:00;;;;;;;1999.90;999.90;;;11.60;99.90;;;;;;5051402;28;20492;-67
2022/04/23 06:18:25;;;;;;;1999.90;999.90;;;11.60;99.90;;;;;;5051669;28;20203;-67
2022/04/23 06:20:51;;;;;;;1999.90;999.90;;;11.80;99.90;;;;;;5051524;28;20179;-67
2022/04/23 06:23:16;;;;;;;1999.90;999.90;;;11.90;99.90;;;;;;5051449;28;20188;-67
2022/04/23 06:25:42;;;;;;;1999.90;999.90;;;12.00;99.90;;;;;;5051162;28;20180;-67
2022/04/23 06:28:10;;;;;;;1999.90;999.90;;;12.10;99.90;;;;;;5051302;28;20199;-67
2022/04/23 06:30:39;;;;;;;1999.90;999.90;;;12.20;99.90;;;;;;5051618;28;20537;-67
2022/04/23 06:33:04;;;;;;;1999.90;999.90;;;12.20;99.90;;;;;;5051625;28;20444;-67
2022/04/23 06:35:30;;;;;;;1999.90;999.90;;;12.30;99.90;;;;;;5050868;28;21075;-67
2022/04/23 06:37:57;;;;;;;1999.90;999.90;;;12.40;99.90;;;;;;5051381;28;20407;-67
2022/04/23 06:40:23;;;;;;;1999.90;999.90;;;12.40;99.90;;;;;;5051447;28;20409;-67
2022/04/23 06:42:48;;;;;;;1999.90;999.90;;;12.50;99.90;;;;;;5054823;28;20445;-67
2022/04/23 06:45:14;;;;;;;1999.90;999.90;;;12.60;99.90;;;;;;5054730;28;20163;-67
2022/04/23 06:47:40;;;;;;;1999.90;999.90;;;12.70;99.90;;;;;;5054947;28;20183;-67
2022/04/23 06:50:06;;;;;;;1999.90;999.90;;;12.70;99.90;;;;;;5054805;28;20653;-67
2022/04/23 06:52:32;;;;;;;1999.90;999.90;;;12.80;99.90;;;;;;5054721;28;20816;-67
2022/04/23 06:54:58;;;;;;;1999.90;999.90;;;12.90;99.90;;;;;;5054491;28;20495;-67
2022/04/23 06:57:24;;;;;;;1999.90;999.90;;;13.00;99.90;;;;;;5054500;28;20186;-67
2022/04/23 06:59:51;;;;;;;1999.90;999.90;;;13.10;99.90;;;;;;5054771;28;20168;-67
2022/04/23 07:02:18;;;;;;;1999.90;999.90;;;13.20;99.90;;;;;;5054639;28;20778;-67
2022/04/23 07:04:43;;;;;;;1999.90;999.90;;;13.20;99.90;;;;;;5054311;28;20426;-67
2022/04/23 07:07:10;;;;;;;1999.90;999.90;;;13.20;99.90;;;;;;5054527;28;20407;-68
2022/04/23 07:09:36;;;;;;;1999.90;999.90;;;13.40;99.90;;;;;;5054770;28;20504;-67
2022/04/23 07:12:06;;;;;;;1999.90;999.90;;;13.50;99.90;;;;;;5054979;28;20426;-67
2022/04/23 07:14:32;;;;;;;1999.90;999.90;;;13.50;99.90;;;;;;5054301;28;20858;-67
2022/04/23 07:16:58;;;;;;;1999.90;999.90;;;13.60;99.90;;;;;;5054757;28;20453;-67
2022/04/23 07:19:24;;;;;;;1999.90;999.90;;;13.60;99.90;;;;;;5054666;28;20410;-67
2022/04/23 07:21:49;;;;;;;1999.90;999.90;;;13.70;99.90;;;;;;5054812;28;20405;-67
2022/04/23 07:24:16;;;;;;;1999.90;999.90;;;13.80;99.90;;;;;;5054205;28;20187;-67
2022/04/23 07:26:42;;;;;;;1999.90;999.90;;;13.90;99.90;;;;;;5054621;28;20188;-68
2022/04/23 07:29:10;;;;;;;1999.90;999.90;;;14.00;99.90;;;;;;5054445;28;20782;-67
2022/04/23 07:31:36;;;;;;;1999.90;999.90;;;14.00;99.90;;;;;;5054485;28;20502;-68
2022/04/23 07:39:31;;;;;;;1999.90;999.90;;;14.20;99.90;;;;;;5054724;28;20786;-67
2022/04/23 07:41:58;;;;;;;1999.90;999.90;;;14.40;99.90;;;;;;5054355;28;20432;-67
2022/04/23 07:44:24;;;;;;;1999.90;999.90;;;14.40;99.90;;;;;;5080221;22;20231;-74
2022/04/23 07:46:50;;;;;;;1999.90;999.90;;;14.60;99.90;;;;;;5074072;28;20945;-75
2022/04/23 07:49:16;;;;;;;1999.90;999.90;;;14.60;99.90;;;;;;5055846;28;20550;-74
2022/04/23 07:51:43;;;;;;;1999.90;999.90;;;14.60;99.90;;;;;;5073443;28;20405;-74
2022/04/23 07:54:08;;;;;;;1999.90;999.90;;;14.70;99.90;;;;;;5073547;28;20435;-74
2022/04/23 07:56:35;;;;;;;1999.90;999.90;;;14.70;99.90;;;;;;5073458;28;20453;-74
2022/04/23 07:59:01;;;;;;;1999.90;999.90;;;14.80;99.90;;;;;;5073637;28;20168;-76
2022/04/23 08:01:27;;;;;;;1999.90;999.90;;;14.90;99.90;;;;;;5073272;28;20449;-75
2022/04/23 08:03:53;;;;;;;1999.90;999.90;;;15.00;99.90;;;;;;5073299;28;20930;-74
2022/04/23 08:06:18;;;;;;;1999.90;999.90;;;15.10;99.90;;;;;;5073079;28;20169;-74
2022/04/23 08:08:44;;;;;;;1999.90;999.90;;;15.20;99.90;;;;;;5073266;28;20181;-75
2022/04/23 08:11:10;;;;;;;1999.90;999.90;;;15.30;99.90;;;;;;5073310;28;20178;-75
2022/04/23 08:13:36;;;;;;;1999.90;999.90;;;15.40;99.90;;;;;;5073016;28;20192;-74
2022/04/23 08:16:02;;;;;;;1999.90;999.90;;;15.50;99.90;;;;;;5072746;28;20445;-75
2022/04/23 08:18:27;;;;;;;1999.90;999.90;;;15.60;99.90;;;;;;5073005;28;20490;-74
2022/04/23 08:20:53;;;;;;;1999.90;999.90;;;15.70;99.90;;;;;;5073201;28;20171;-74
2022/04/23 08:23:19;;;;;;;1999.90;999.90;;;15.80;99.90;;;;;;5072777;28;20186;-74
2022/04/23 08:25:46;;;;;;;1999.90;999.90;;;15.80;99.90;;;;;;5072662;28;20552;-74
2022/04/23 08:30:56;;;;;;;1999.90;999.90;;;15.90;99.90;;;;;;5072858;28;20428;-75
2022/04/23 08:33:22;;;;;;;1999.90;999.90;;;15.90;99.90;;;;;;5072402;28;20921;-75
2022/04/23 08:35:47;;;;;;;1999.90;999.90;;;15.90;99.90;;;;;;5072284;28;20446;-74
2022/04/23 08:38:13;;;;;;;1999.90;999.90;;;15.90;99.90;;;;;;5072691;28;20657;-75
2022/04/23 08:40:44;;;;;;;1999.90;999.90;;;16.00;99.90;;;;;;5072730;28;20167;-75
2022/04/23 08:43:10;;;;;;;1999.90;999.90;;;16.20;99.90;;;;;;5072457;28;20182;-74
2022/04/23 08:45:37;;;;;;;1999.90;999.90;;;16.30;99.90;;;;;;5072333;28;20407;-74
2022/04/23 08:48:17;;;;;;;1999.90;999.90;;;16.40;99.90;;;;;;5072422;28;20492;-75
2022/04/23 08:50:45;;;;;;;1999.90;999.90;;;16.50;99.90;;;;;;5072439;28;20411;-75
2022/04/23 08:53:17;;;;;;;1999.90;999.90;;;16.70;99.90;;;;;;5072274;28;20426;-75
2022/04/23 08:55:45;;;;;;;1999.90;999.90;;;16.90;99.90;;;;;;5072031;28;20815;-75
2022/04/23 08:58:13;;;;;;;1999.90;999.90;;;17.10;99.90;;;;;;5072309;28;20478;-75
2022/04/23 09:00:38;;;;;;;1999.90;999.90;;;17.10;99.90;;;;;;5072305;28;20491;-74
2022/04/23 09:03:04;;;;;;;1999.90;999.90;;;17.10;99.90;;;;;;5071808;28;20441;-75
2022/04/23 09:05:31;;;;;;;1999.90;999.90;;;17.20;99.90;;;;;;5071775;28;20180;-74
2022/04/23 09:07:57;;;;;;;1999.90;999.90;;;17.30;99.90;;;;;;5072242;28;20259;-74
2022/04/23 09:10:47;;;;;;;1999.90;999.90;;;17.30;99.90;;;;;;5072225;28;20489;-74
2022/04/23 09:13:32;;;;;;;1999.90;999.90;;;17.40;99.90;;;;;;5072008;28;20414;-74
2022/04/23 09:24:20;;;;;;;1999.90;999.90;;;17.80;99.90;;;;;;5071722;28;20416;-74
2022/04/23 09:27:07;;;;;;;1999.90;999.90;;;17.90;99.90;;;;;;5071977;28;20488;-75
2022/04/23 09:29:33;;;;;;;1999.90;999.90;;;18.00;99.90;;;;;;5072017;28;20168;-74
2022/04/23 09:32:13;;;;;;;1999.90;999.90;;;18.00;99.90;;;;;;5071876;28;20837;-75
2022/04/23 09:34:39;;;;;;;1999.90;999.90;;;18.20;99.90;;;;;;5071690;28;20192;-74
2022/04/23 09:37:05;;;;;;;1999.90;999.90;;;18.40;99.90;;;;;;5071783;28;20449;-74
2022/04/23 09:39:35;;;;;;;1999.90;999.90;;;18.40;99.90;;;;;;5071611;28;20169;-73
2022/04/23 09:42:17;;;;;;;1999.90;999.90;;;18.50;99.90;;;;;;5071750;28;20901;-74
2022/04/23 09:44:43;;;;;;;1999.90;999.90;;;18.50;99.90;;;;;;5071266;28;20524;-73
2022/04/23 09:47:09;;;;;;;1999.90;999.90;;;18.40;99.90;;;;;;5071679;28;20472;-73
2022/04/23 09:49:35;;;;;;;1999.90;999.90;;;18.60;99.90;;;;;;5071751;28;20432;-74
2022/04/23 09:52:06;;;;;;;1999.90;999.90;;;18.80;99.90;;;;;;5071654;28;20411;-73
2022/04/23 09:54:33;;;;;;;1999.90;999.90;;;19.00;99.90;;;;;;5064303;28;20452;-71
2022/04/23 09:57:00;;;;;;;1999.90;999.90;;;19.20;99.90;;;;;;5071240;28;20476;-72
2022/04/23 09:59:26;;;;;;;1999.90;999.90;;;19.20;99.90;;;;;;5071026;28;20408;-72
2022/04/23 10:01:54;;;;;;;1999.90;999.90;;;19.20;99.90;;;;;;5070751;28;20459;-71
2022/04/23 10:04:25;;;;;;;1999.90;999.90;;;19.30;99.90;;;;;;5070672;28;20841;-71
2022/04/23 10:06:54;;;;;;;1999.90;999.90;;;19.30;99.90;;;;;;5070972;28;20407;-73
2022/04/23 10:09:26;;;;;;;1999.90;999.90;;;19.30;99.90;;;;;;5070706;28;20785;-72
2022/04/23 10:12:01;;;;;;;1999.90;999.90;;;19.30;99.90;;;;;;5071095;28;20460;-73
2022/04/23 10:14:32;;;;;;;1999.90;999.90;;;19.40;99.90;;;;;;5070451;28;20427;-72
2022/04/23 10:17:00;;;;;;;1999.90;999.90;;;19.70;99.90;;;;;;5074867;28;20458;-73
2022/04/23 10:19:28;;;;;;;1999.90;999.90;;;19.70;99.90;;;;;;5074600;28;20400;-72
2022/04/23 10:22:09;;;;;;;1999.90;999.90;;;19.80;99.90;;;;;;5074475;28;20480;-71
2022/04/23 10:24:56;;;;;;;1999.90;999.90;;;19.90;99.90;;;;;;5074186;28;20480;-74
2022/04/23 10:27:25;;;;;;;1999.90;999.90;;;20.20;99.90;;;;;;5074676;28;20415;-73
2022/04/23 10:30:04;;;;;;;1999.90;999.90;;;20.30;99.90;;;;;;5074084;28;20743;-74
2022/04/23 10:32:40;;;;;;;1999.90;999.90;;;20.40;99.90;;;;;;5056590;28;20767;-74
2022/04/23 10:35:18;;;;;;;1999.90;999.90;;;20.30;99.90;;;;;;5074082;28;20507;-74
2022/04/23 10:37:45;;;;;;;1999.90;999.90;;;20.40;99.90;;;;;;5055706;28;20408;-74
2022/04/23 10:40:10;;;;;;;1999.90;999.90;;;20.50;99.90;;;;;;5074272;28;20404;-74
2022/04/23 10:42:38;;;;;;;1999.90;999.90;;;20.70;99.90;;;;;;5074279;28;20446;-74
2022/04/23 10:45:05;;;;;;;1999.90;999.90;;;20.80;99.90;;;;;;5073394;28;20743;-75
2022/04/23 10:47:33;;;;;;;1999.90;999.90;;;20.90;99.90;;;;;;5074339;28;20819;-74
2022/04/23 10:50:22;;;;;;;1999.90;999.90;;;21.00;99.90;;;;;;5074135;28;20508;-74
2022/04/23 10:52:53;;;;;;;1999.90;999.90;;;21.00;99.90;;;;;;5074823;28;20398;-74
2022/04/23 10:55:20;;;;;;;1999.90;999.90;;;21.20;99.90;;;;;;5074916;28;20413;-74
2022/04/23 10:57:49;;;;;;;1999.90;999.90;;;21.40;99.90;;;;;;5074952;28;20406;-74
2022/04/23 11:00:20;;;;;;;1999.90;999.90;;;21.70;99.90;;;;;;5074143;28;20417;-74
2022/04/23 11:02:56;;;;;;;1999.90;999.90;;;21.80;99.10;;;;;;5075275;28;20377;-74
2022/04/23 11:13:48;;;;;;;1999.90;999.90;;;22.60;94.50;;;;;;5073957;28;20915;-74
2022/04/23 11:16:19;;;;;;;1999.90;999.90;;;22.40;93.90;;;;;;5075014;28;20424;-74
2022/04/23 11:18:49;;;;;;;1999.90;999.90;;;22.30;92.90;;;;;;5057031;28;20636;-74
2022/04/23 11:21:24;;;;;;;1999.90;999.90;;;22.30;93.80;;;;;;5074375;28;20408;-74
2022/04/23 11:23:52;;;;;;;1999.90;999.90;;;22.60;94.80;;;;;;5074014;28;20427;-74
2022/04/23 11:26:18;;;;;;;1999.90;999.90;;;22.90;93.90;;;;;;5073800;28;20433;-74
2022/04/23 11:28:46;;;;;;;1999.90;999.90;;;23.00;93.90;;;;;;5073514;28;20408;-75
2022/04/23 11:31:18;;;;;;;1999.90;999.90;;;22.80;87.10;;;;;;5073713;28;20460;-75
2022/04/23 11:33:54;;;;;;;1999.90;999.90;;;22.20;84.70;;;;;;5073430;28;20470;-76
2022/04/23 11:36:25;;;;;;;1999.90;999.90;;;22.00;86.90;;;;;;5073015;28;20857;-75
2022/04/23 11:38:51;;;;;;;1999.90;999.90;;;21.80;90.40;;;;;;5073521;28;20459;-75
2022/04/23 11:41:49;;;;;;;1999.90;999.90;;;21.80;87.90;;;;;;5073454;28;20426;-75
2022/04/23 11:44:17;;;;;;;1999.90;999.90;;;22.10;86.70;;;;;;5056926;28;20651;-76
2022/04/23 11:46:48;;;;;;;1999.90;999.90;;;22.20;87.30;;;;;;5073368;28;20378;-75
2022/04/23 11:49:26;;;;;;;1999.90;999.90;;;22.20;83.50;;;;;;5073347;28;20397;-75
2022/04/23 11:52:00;;;;;;;1999.90;999.90;;;22.20;83.60;;;;;;5073681;28;20384;-74
2022/04/23 11:54:33;;;;;;;1999.90;999.90;;;22.70;85.30;;;;;;5073741;28;20420;-74
2022/04/23 11:56:58;;;;;;;1999.90;999.90;;;23.30;74.70;;;;;;5073808;28;20422;-74
2022/04/23 11:59:25;;;;;;;1999.90;999.90;;;23.80;77.00;;;;;;5073890;28;20468;-74
2022/04/23 12:01:50;;;;;;;1999.90;999.90;;;24.30;70.50;;;;;;5073965;28;20167;-74
2022/04/23 12:04:16;;;;;;;1999.90;999.90;;;24.60;70.40;;;;;;5073300;28;21004;-74
2022/04/23 12:06:46;;;;;;;1999.90;999.90;;;25.10;63.50;;;;;;5073148;28;20178;-74
2022/04/23 12:09:12;;;;;;;1999.90;999.90;;;25.60;59.60;;;;;;5073761;28;20249;-74
2022/04/23 12:11:38;;;;;;;1999.90;999.90;;;25.90;52.60;;;;;;5073633;28;20405;-74
2022/04/23 12:14:04;;;;;;;1999.90;999.90;;;26.40;52.60;;;;;;5071065;28;20444;-72
2022/04/23 12:16:37;;;;;;;1999.90;999.90;;;26.80;46.70;;;;;;5072728;28;20463;-72
2022/04/23 12:19:07;;;;;;;1999.90;999.90;;;26.80;41.50;;;;;;5072671;28;20160;-74
2022/04/23 12:21:34;;;;;;;1999.90;999.90;;;26.90;40.00;;;;;;5072358;28;20472;-72
2022/04/23 12:24:00;;;;;;;1999.90;999.90;;;26.50;38.90;;;;;;5072113;28;20436;-72
2022/04/23 12:26:39;;;;;;;1999.90;999.90;;;26.20;37.50;;;;;;5072345;28;20397;-72
2022/04/23 12:43:20;;;;;;;1999.90;999.90;;;27.30;34.90;;;;;;5071498;28;20416;-72
2022/04/23 12:45:46;;;;;;;1999.90;999.90;;;27.60;32.60;;;;;;5071783;28;20828;-71